Time;durP1;ratioP1;P1;durP2;ratioP2;P2;SDS_P1;SDS_P2;PMS_P1;PMS_P2;Temp;Humidity;BMP_temperature;BMP_pressure;BME280_temperature;BME280_humidity;BME280_pressure;Samples;Min_cycle;Max_cycle;Signal;HPM_P1;HPM_P2
2021/11/26 00:02:16;;;;;;;0.90;0.90;;;6.60;99.90;;;;;;5063431;28;20208;-91
2021/11/26 00:04:42;;;;;;;6.70;0.30;;;6.70;99.90;;;;;;5048390;28;20209;-90
2021/11/26 00:07:09;;;;;;;0.10;0.10;;;6.50;99.90;;;;;;5046591;28;20238;-90
2021/11/26 00:09:35;;;;;;;0.20;0.20;;;6.40;99.90;;;;;;5047033;28;20232;-89
2021/11/26 00:12:01;;;;;;;0.10;0.10;;;6.30;99.90;;;;;;5029566;28;20217;-91
2021/11/26 00:14:30;;;;;;;0.30;0.20;;;6.20;99.90;;;;;;5046737;28;20228;-89
2021/11/26 00:16:58;;;;;;;0.30;0.30;;;5.90;99.90;;;;;;5047602;28;20262;-88
2021/11/26 00:19:27;;;;;;;0.20;0.20;;;5.90;99.90;;;;;;5046604;28;20222;-90
2021/11/26 00:21:55;;;;;;;0.40;0.30;;;5.90;99.90;;;;;;5047169;28;20206;-91
2021/11/26 00:24:22;;;;;;;0.13;0.13;;;5.90;99.90;;;;;;5046074;28;20260;-90
2021/11/26 00:26:49;;;;;;;0.40;0.40;;;6.00;99.90;;;;;;5047402;28;20339;-91
2021/11/26 00:29:15;;;;;;;0.20;0.20;;;6.00;99.90;;;;;;5047497;28;20189;-91
2021/11/26 00:31:41;;;;;;;0.10;0.10;;;6.10;99.90;;;;;;5047797;28;20218;-90
2021/11/26 00:34:08;;;;;;;1.07;0.83;;;6.10;99.90;;;;;;5029689;28;20567;-90
2021/11/26 00:36:34;;;;;;;0.50;0.50;;;6.10;99.90;;;;;;5046984;28;20222;-91
2021/11/26 00:39:01;;;;;;;0.10;0.10;;;6.20;99.90;;;;;;5046682;28;20245;-90
2021/11/26 00:41:27;;;;;;;0.30;0.30;;;6.20;99.90;;;;;;5046511;28;20190;-89
2021/11/26 00:43:53;;;;;;;0.40;0.40;;;6.20;99.90;;;;;;5045937;28;20221;-90
2021/11/26 00:46:19;;;;;;;0.20;0.20;;;6.30;99.90;;;;;;5043976;28;20205;-90
2021/11/26 00:48:46;;;;;;;0.10;0.10;;;6.20;99.90;;;;;;5042107;28;20324;-90
2021/11/26 00:51:12;;;;;;;1.47;1.03;;;6.20;99.90;;;;;;5041652;28;20310;-89
2021/11/26 00:53:38;;;;;;;0.60;0.43;;;6.20;99.90;;;;;;5045233;28;20182;-89
2021/11/26 00:56:05;;;;;;;1.83;0.33;;;6.20;99.90;;;;;;5047494;28;20194;-89
2021/11/26 00:58:31;;;;;;;1.00;0.67;;;6.10;99.90;;;;;;5046661;28;20229;-90
2021/11/26 01:00:57;;;;;;;0.60;0.60;;;6.20;99.90;;;;;;5045076;28;20643;-89
2021/11/26 01:03:23;;;;;;;0.10;0.10;;;6.10;99.90;;;;;;5045872;28;20226;-88
2021/11/26 01:05:49;;;;;;;0.40;0.40;;;6.10;99.90;;;;;;5045324;28;20236;-90
2021/11/26 01:08:16;;;;;;;0.10;0.10;;;6.10;99.90;;;;;;5045617;28;20319;-89
2021/11/26 01:10:43;;;;;;;0.30;0.30;;;6.10;99.90;;;;;;5045153;28;20688;-90
2021/11/26 01:13:09;;;;;;;0.10;0.10;;;6.00;99.90;;;;;;5045977;28;20246;-89
2021/11/26 01:15:36;;;;;;;0.10;0.10;;;6.00;99.90;;;;;;5061506;28;21002;-89
2021/11/26 01:18:03;;;;;;;0.20;0.20;;;6.00;99.90;;;;;;5046232;28;20225;-89
2021/11/26 01:20:31;;;;;;;1.30;0.30;;;6.00;99.90;;;;;;5046636;28;20182;-91
2021/11/26 01:22:57;;;;;;;5.90;0.83;;;6.00;99.90;;;;;;5046446;28;20225;-89
2021/11/26 01:25:23;;;;;;;0.13;0.13;;;5.90;99.90;;;;;;5045513;28;20229;-89
2021/11/26 01:27:50;;;;;;;0.20;0.20;;;5.90;99.90;;;;;;5044878;28;20245;-90
2021/11/26 01:30:30;;;;;;;0.30;0.10;;;5.90;99.90;;;;;;5045815;28;20217;-89
2021/11/26 01:33:00;;;;;;;0.20;0.20;;;5.80;99.90;;;;;;5053616;28;20222;-90
2021/11/26 01:35:26;;;;;;;0.20;0.20;;;5.80;99.90;;;;;;5061725;28;20190;-90
2021/11/26 01:37:53;;;;;;;0.20;0.20;;;5.80;99.90;;;;;;5045901;28;20312;-88
2021/11/26 01:40:19;;;;;;;0.10;0.10;;;5.90;99.90;;;;;;5045008;28;20700;-91
2021/11/26 01:42:47;;;;;;;0.23;0.23;;;5.90;99.90;;;;;;5045931;28;20219;-90
2021/11/26 01:45:14;;;;;;;0.20;0.20;;;5.90;99.90;;;;;;5044334;28;20217;-88
2021/11/26 01:47:40;;;;;;;0.30;0.30;;;5.90;99.90;;;;;;5045419;28;20210;-90
2021/11/26 01:50:07;;;;;;;2.67;0.70;;;5.90;99.90;;;;;;5045945;28;20538;-91
2021/11/26 01:52:33;;;;;;;0.40;0.40;;;5.90;99.90;;;;;;5062626;28;20229;-89
2021/11/26 01:54:59;;;;;;;0.57;0.37;;;5.90;99.90;;;;;;5045017;28;20270;-89
2021/11/26 01:57:25;;;;;;;0.10;0.10;;;5.90;99.90;;;;;;5044822;28;20233;-90
2021/11/26 01:59:52;;;;;;;0.63;0.30;;;5.90;99.90;;;;;;5045101;28;20352;-91
2021/11/26 02:02:18;;;;;;;10.20;0.70;;;6.00;99.90;;;;;;5045249;28;20214;-89
2021/11/26 02:04:45;;;;;;;0.10;0.10;;;6.00;99.90;;;;;;5043459;28;20233;-89
2021/11/26 02:07:11;;;;;;;0.20;0.20;;;6.00;99.90;;;;;;5041402;28;20253;-89
2021/11/26 02:09:38;;;;;;;0.27;0.27;;;6.00;99.90;;;;;;5042040;28;20240;-89
2021/11/26 02:12:04;;;;;;;0.63;0.63;;;5.90;99.90;;;;;;5042248;28;20214;-90
2021/11/26 02:14:31;;;;;;;0.30;0.30;;;5.90;99.90;;;;;;5059002;28;20217;-89
2021/11/26 02:16:57;;;;;;;0.20;0.20;;;5.90;99.90;;;;;;5045301;28;20222;-90
2021/11/26 02:19:25;;;;;;;0.80;0.80;;;5.90;99.90;;;;;;5047558;28;20226;-90
2021/11/26 02:21:52;;;;;;;0.30;0.20;;;5.90;99.90;;;;;;5046248;28;20226;-89
2021/11/26 02:24:18;;;;;;;0.20;0.20;;;5.90;99.90;;;;;;5046769;28;20226;-91
2021/11/26 02:26:47;;;;;;;0.20;0.20;;;6.00;99.90;;;;;;5048192;28;20221;-91
2021/11/26 02:29:15;;;;;;;0.27;0.27;;;6.00;99.90;;;;;;5045224;28;20249;-91
2021/11/26 02:31:41;;;;;;;0.20;0.20;;;6.00;99.90;;;;;;5046211;28;20222;-91
2021/11/26 02:34:07;;;;;;;0.23;0.23;;;6.00;99.90;;;;;;5046695;28;20214;-91
2021/11/26 02:36:33;;;;;;;2.83;0.93;;;6.00;99.90;;;;;;5048722;28;20672;-91
2021/11/26 02:38:59;;;;;;;0.97;0.77;;;6.00;99.90;;;;;;5047949;28;20278;-91
2021/11/26 02:41:26;;;;;;;0.30;0.30;;;6.00;99.90;;;;;;5049610;28;20193;-88
2021/11/26 02:43:52;;;;;;;0.20;0.20;;;5.90;99.90;;;;;;5048217;28;20217;-91
2021/11/26 02:46:20;;;;;;;0.10;0.10;;;5.80;99.90;;;;;;5047475;28;20312;-91
2021/11/26 02:48:46;;;;;;;1.53;1.43;;;5.80;99.90;;;;;;5060825;28;20599;-90
2021/11/26 02:51:13;;;;;;;0.20;0.20;;;5.80;99.90;;;;;;5028023;28;20214;-90
2021/11/26 02:53:39;;;;;;;0.40;0.40;;;5.70;99.90;;;;;;5029358;28;20209;-90
2021/11/26 02:56:05;;;;;;;0.20;0.20;;;5.80;99.90;;;;;;5040404;28;20548;-89
2021/11/26 02:58:31;;;;;;;0.37;0.37;;;5.80;99.90;;;;;;5031140;28;20225;-90
2021/11/26 03:01:00;;;;;;;0.30;0.30;;;5.70;99.90;;;;;;5047844;28;20245;-90
2021/11/26 03:03:27;;;;;;;0.30;0.30;;;5.70;99.90;;;;;;5047096;28;20218;-90
2021/11/26 03:06:04;;;;;;;0.27;0.27;;;5.70;99.90;;;;;;5048099;28;20205;-88
2021/11/26 03:08:31;;;;;;;0.10;0.10;;;5.70;99.90;;;;;;5039328;28;20228;-91
2021/11/26 03:10:59;;;;;;;3.37;0.27;;;5.70;99.90;;;;;;5047445;28;20368;-90
2021/11/26 03:13:26;;;;;;;0.23;0.23;;;5.80;99.90;;;;;;5048231;28;20320;-90
2021/11/26 03:15:53;;;;;;;0.90;0.90;;;5.80;99.90;;;;;;5048238;28;20563;-88
2021/11/26 03:18:20;;;;;;;0.50;0.50;;;5.80;99.90;;;;;;5048392;28;20230;-91
2021/11/26 03:20:48;;;;;;;0.40;0.30;;;5.90;99.90;;;;;;5048131;28;20263;-89
2021/11/26 03:23:14;;;;;;;0.30;0.30;;;5.80;99.90;;;;;;5048152;28;20703;-90
2021/11/26 03:25:41;;;;;;;0.23;0.23;;;5.40;99.90;;;;;;5046528;28;20749;-88
2021/11/26 03:28:09;;;;;;;1.23;0.57;;;5.40;99.90;;;;;;5047024;28;20312;-90
2021/11/26 03:30:35;;;;;;;0.67;0.67;;;5.40;99.90;;;;;;5048186;28;20218;-90
2021/11/26 03:33:01;;;;;;;0.30;0.30;;;5.40;99.90;;;;;;5047685;28;20218;-89
2021/11/26 03:35:27;;;;;;;0.20;0.20;;;5.40;99.90;;;;;;5031573;28;20198;-90
2021/11/26 03:37:54;;;;;;;0.20;0.20;;;5.40;99.90;;;;;;5048913;28;21349;-90
2021/11/26 03:40:21;;;;;;;1.13;0.53;;;5.50;99.90;;;;;;5048081;28;20222;-90
2021/11/26 03:42:47;;;;;;;0.30;0.30;;;5.50;99.90;;;;;;5047942;28;20264;-89
2021/11/26 03:45:15;;;;;;;0.20;0.20;;;5.50;99.90;;;;;;5055996;28;20529;-90
2021/11/26 03:47:41;;;;;;;0.40;0.40;;;5.60;99.90;;;;;;5047845;28;20214;-90
2021/11/26 03:50:08;;;;;;;0.30;0.30;;;5.60;99.90;;;;;;5048742;28;20310;-88
2021/11/26 03:52:35;;;;;;;0.23;0.23;;;5.60;99.90;;;;;;5047633;28;20224;-90
2021/11/26 03:55:03;;;;;;;0.10;0.10;;;5.60;99.90;;;;;;5046891;28;20224;-89
2021/11/26 03:57:29;;;;;;;0.13;0.13;;;5.60;99.90;;;;;;5047160;28;20226;-89
2021/11/26 03:59:54;;;;;;;0.20;0.20;;;5.60;99.90;;;;;;5047667;28;20221;-91
2021/11/26 04:02:20;;;;;;;0.30;0.30;;;5.50;99.90;;;;;;5030954;28;21058;-90
2021/11/26 04:04:46;;;;;;;0.20;0.20;;;5.50;99.90;;;;;;5047026;28;20213;-91
2021/11/26 04:07:12;;;;;;;2.63;0.50;;;5.50;99.90;;;;;;5030042;28;20254;-91
2021/11/26 04:09:37;;;;;;;0.30;0.30;;;5.40;99.90;;;;;;5048535;28;20536;-90
2021/11/26 04:12:04;;;;;;;0.40;0.40;;;5.40;99.90;;;;;;5047136;28;20232;-90
2021/11/26 04:14:30;;;;;;;0.33;0.30;;;5.40;99.90;;;;;;5047293;28;20190;-90
2021/11/26 04:16:56;;;;;;;0.17;0.17;;;5.40;99.90;;;;;;5030125;28;20762;-91
2021/11/26 04:19:22;;;;;;;0.10;0.10;;;5.50;99.90;;;;;;5036536;28;20241;-91
2021/11/26 04:21:47;;;;;;;0.10;0.10;;;5.50;99.90;;;;;;5047296;28;21037;-90
2021/11/26 04:24:13;;;;;;;0.20;0.20;;;5.60;99.90;;;;;;5047633;28;20697;-91
2021/11/26 04:26:39;;;;;;;0.43;0.40;;;5.60;99.90;;;;;;5029932;28;20194;-91
2021/11/26 04:29:04;;;;;;;0.50;0.50;;;5.60;99.90;;;;;;5030270;28;20190;-89
2021/11/26 04:31:30;;;;;;;0.20;0.20;;;5.60;99.90;;;;;;5029976;28;20232;-88
2021/11/26 04:33:56;;;;;;;0.63;0.63;;;5.50;99.90;;;;;;5047197;28;20262;-89
2021/11/26 04:36:23;;;;;;;0.40;0.40;;;5.50;99.90;;;;;;5046104;28;20260;-90
2021/11/26 04:38:49;;;;;;;0.20;0.20;;;5.50;99.90;;;;;;5045147;28;20198;-90
2021/11/26 04:41:15;;;;;;;0.20;0.20;;;5.50;99.90;;;;;;5054852;28;20197;-89
2021/11/26 04:43:41;;;;;;;0.50;0.50;;;5.60;99.90;;;;;;5045635;28;20221;-91
2021/11/26 04:46:07;;;;;;;0.20;0.20;;;5.60;99.90;;;;;;5046364;28;20218;-88
2021/11/26 04:48:33;;;;;;;0.23;0.23;;;5.60;99.90;;;;;;5045198;28;20250;-88
2021/11/26 04:50:59;;;;;;;0.10;0.10;;;5.40;99.90;;;;;;5058400;28;20218;-89
2021/11/26 04:53:25;;;;;;;0.20;0.20;;;5.40;99.90;;;;;;5042394;28;20186;-89
2021/11/26 04:55:51;;;;;;;0.20;0.20;;;5.40;99.90;;;;;;5041729;28;20218;-90
2021/11/26 04:58:17;;;;;;;1.57;0.37;;;5.40;99.90;;;;;;5028303;28;20708;-89
2021/11/26 05:00:43;;;;;;;1.07;0.70;;;5.40;99.90;;;;;;5045412;28;20248;-90
2021/11/26 05:03:08;;;;;;;0.20;0.20;;;5.40;99.90;;;;;;5027530;28;20229;-90
2021/11/26 05:05:35;;;;;;;0.60;0.60;;;5.50;99.90;;;;;;5045954;28;20328;-90
2021/11/26 05:08:01;;;;;;;0.90;0.50;;;5.40;99.90;;;;;;5045997;28;20233;-92
2021/11/26 05:10:27;;;;;;;0.73;0.70;;;5.40;99.90;;;;;;5028647;28;20222;-90
2021/11/26 05:12:57;;;;;;;0.97;0.30;;;5.40;99.90;;;;;;5045528;28;20263;-89
2021/11/26 05:15:27;;;;;;;0.20;0.20;;;5.30;99.90;;;;;;5045886;28;20283;-88
2021/11/26 05:17:58;;;;;;;1.30;0.53;;;5.30;99.90;;;;;;5045843;28;20636;-90
2021/11/26 05:20:25;;;;;;;0.20;0.20;;;5.30;99.90;;;;;;5046982;28;20186;-89
2021/11/26 05:22:51;;;;;;;0.10;0.10;;;5.20;99.90;;;;;;5045281;28;20221;-89
2021/11/26 05:25:18;;;;;;;0.20;0.20;;;5.20;99.90;;;;;;5045266;28;20696;-89
2021/11/26 05:27:44;;;;;;;0.20;0.20;;;5.20;99.90;;;;;;5045512;28;20481;-91
2021/11/26 05:30:11;;;;;;;0.80;0.50;;;5.20;99.90;;;;;;5044965;28;20221;-88
2021/11/26 05:32:39;;;;;;;0.20;0.20;;;5.20;99.90;;;;;;5042140;28;20213;-92
2021/11/26 05:35:07;;;;;;;0.10;0.10;;;5.10;99.90;;;;;;5025059;28;20182;-91
2021/11/26 05:37:32;;;;;;;0.17;0.17;;;5.00;99.90;;;;;;5041193;28;20221;-91
2021/11/26 05:39:58;;;;;;;0.10;0.10;;;5.00;99.90;;;;;;5042048;28;20221;-91
2021/11/26 05:42:24;;;;;;;0.20;0.20;;;4.90;99.90;;;;;;5044277;28;20226;-93
2021/11/26 05:44:50;;;;;;;0.30;0.30;;;4.90;99.90;;;;;;5028507;28;20205;-92
2021/11/26 05:47:15;;;;;;;0.17;0.17;;;4.80;99.90;;;;;;5046096;28;20751;-92
2021/11/26 05:49:41;;;;;;;0.90;0.90;;;4.80;99.90;;;;;;5044664;28;20610;-91
2021/11/26 05:52:07;;;;;;;0.30;0.30;;;4.70;99.90;;;;;;5045415;28;20332;-92
2021/11/26 05:54:33;;;;;;;0.20;0.20;;;4.70;99.90;;;;;;5028820;28;20221;-92
2021/11/26 05:56:58;;;;;;;0.40;0.40;;;4.70;99.90;;;;;;5035946;28;20228;-91
2021/11/26 05:59:24;;;;;;;0.43;0.43;;;4.60;99.90;;;;;;5041772;28;20335;-90
2021/11/26 06:01:51;;;;;;;0.23;0.23;;;4.60;99.90;;;;;;5045407;28;20564;-87
2021/11/26 06:04:16;;;;;;;0.73;0.73;;;4.60;99.90;;;;;;5042744;28;20867;-91
2021/11/26 06:06:42;;;;;;;5.00;0.63;;;4.60;99.90;;;;;;5043830;28;20304;-92
2021/11/26 06:09:08;;;;;;;0.23;0.23;;;4.60;99.90;;;;;;5042994;28;20272;-90
2021/11/26 06:11:33;;;;;;;0.33;0.33;;;4.60;99.90;;;;;;5052207;28;20194;-91
2021/11/26 06:13:59;;;;;;;0.20;0.20;;;4.60;99.90;;;;;;5041784;28;20213;-91
2021/11/26 06:16:27;;;;;;;0.20;0.20;;;4.50;99.90;;;;;;5045778;28;20222;-92
2021/11/26 06:18:53;;;;;;;0.20;0.20;;;4.50;99.90;;;;;;5045023;28;20256;-90
2021/11/26 06:21:18;;;;;;;0.23;0.23;;;4.50;99.90;;;;;;5042138;28;20249;-91
2021/11/26 06:23:44;;;;;;;1.50;0.63;;;4.50;99.90;;;;;;5042182;28;20192;-90
2021/11/26 06:26:10;;;;;;;2.00;0.70;;;4.50;99.90;;;;;;5041428;28;20198;-89
2021/11/26 06:28:35;;;;;;;0.60;0.60;;;4.50;99.90;;;;;;5027609;28;20229;-90
2021/11/26 06:31:01;;;;;;;0.30;0.30;;;4.50;99.90;;;;;;5043535;28;20681;-90
2021/11/26 06:33:27;;;;;;;0.40;0.40;;;4.50;99.90;;;;;;5043816;28;20755;-90
2021/11/26 06:35:53;;;;;;;0.33;0.33;;;4.60;99.90;;;;;;5027884;28;20190;-89
2021/11/26 06:38:20;;;;;;;0.43;0.43;;;4.60;99.90;;;;;;5044751;28;20202;-92
2021/11/26 06:40:45;;;;;;;0.60;0.60;;;4.70;99.90;;;;;;5042065;28;20313;-90
2021/11/26 06:43:11;;;;;;;0.73;0.73;;;4.70;99.90;;;;;;5042658;28;20221;-89
2021/11/26 06:45:37;;;;;;;0.73;0.73;;;4.70;99.90;;;;;;5042245;28;20838;-88
2021/11/26 06:48:03;;;;;;;2.77;2.57;;;4.70;99.90;;;;;;5042449;28;20263;-88
2021/11/26 06:50:29;;;;;;;0.90;0.80;;;4.70;99.90;;;;;;5034608;28;20198;-90
2021/11/26 06:52:55;;;;;;;0.87;0.87;;;4.80;99.90;;;;;;5043518;28;20226;-91
2021/11/26 06:55:22;;;;;;;0.40;0.40;;;4.90;99.90;;;;;;5043713;28;21125;-89
2021/11/26 06:57:49;;;;;;;1.33;0.70;;;4.90;99.90;;;;;;5024947;28;20232;-87
2021/11/26 07:00:17;;;;;;;3.93;0.50;;;5.00;99.90;;;;;;5041893;28;20303;-88
2021/11/26 07:02:43;;;;;;;0.20;0.20;;;5.00;99.90;;;;;;5045985;28;20252;-88
2021/11/26 07:05:10;;;;;;;0.40;0.40;;;5.00;99.90;;;;;;5046047;28;20657;-89
2021/11/26 07:07:36;;;;;;;1.20;0.57;;;5.10;99.90;;;;;;5045828;28;20233;-91
2021/11/26 07:10:05;;;;;;;0.50;0.50;;;5.00;99.90;;;;;;5029016;28;20225;-90
2021/11/26 07:12:31;;;;;;;1.20;0.70;;;5.10;99.90;;;;;;5044940;28;20597;-90
2021/11/26 07:14:57;;;;;;;0.97;0.40;;;5.10;99.90;;;;;;5045833;28;20221;-89
2021/11/26 07:17:23;;;;;;;1.03;0.97;;;5.10;99.90;;;;;;5046724;28;20248;-88
2021/11/26 07:19:49;;;;;;;1.20;0.33;;;5.10;99.90;;;;;;5045948;28;20210;-87
2021/11/26 07:22:17;;;;;;;4.20;0.90;;;5.10;99.90;;;;;;5046519;28;20225;-87
2021/11/26 07:24:44;;;;;;;0.20;0.20;;;5.10;99.90;;;;;;5044752;28;20229;-86
2021/11/26 07:27:10;;;;;;;19.73;1.23;;;5.10;99.90;;;;;;5043150;28;20241;-86
2021/11/26 07:29:36;;;;;;;0.50;0.50;;;5.20;99.90;;;;;;5044222;28;20186;-87
2021/11/26 07:32:02;;;;;;;3.07;0.30;;;5.20;99.90;;;;;;5028338;28;20653;-87
2021/11/26 07:34:28;;;;;;;0.43;0.43;;;5.20;99.90;;;;;;5055524;28;20537;-87
2021/11/26 07:36:55;;;;;;;0.20;0.20;;;5.20;99.90;;;;;;5030145;28;21210;-86
2021/11/26 07:39:22;;;;;;;0.30;0.30;;;5.20;99.90;;;;;;5043447;28;20252;-85
2021/11/26 07:41:47;;;;;;;5.27;0.43;;;5.20;99.90;;;;;;5042744;28;20194;-87
2021/11/26 07:44:13;;;;;;;1.53;1.17;;;5.30;99.90;;;;;;5026484;28;20193;-86
2021/11/26 07:46:39;;;;;;;0.33;0.33;;;5.30;99.90;;;;;;5026608;28;20221;-86
2021/11/26 07:49:05;;;;;;;0.57;0.57;;;5.30;99.90;;;;;;5026477;28;20305;-87
2021/11/26 07:51:31;;;;;;;0.40;0.40;;;5.30;99.90;;;;;;5042489;28;20714;-88
2021/11/26 07:53:57;;;;;;;2.53;0.63;;;5.30;99.90;;;;;;5046865;28;20221;-88
2021/11/26 07:56:23;;;;;;;0.30;0.30;;;5.30;99.90;;;;;;5047406;28;20190;-87
2021/11/26 07:58:49;;;;;;;0.60;0.60;;;5.40;99.90;;;;;;5047618;28;20221;-86
2021/11/26 08:01:15;;;;;;;0.20;0.20;;;5.40;99.90;;;;;;5029929;28;20242;-86
2021/11/26 08:03:41;;;;;;;0.30;0.30;;;5.40;99.90;;;;;;5029422;28;20649;-85
2021/11/26 08:06:07;;;;;;;1.43;0.80;;;5.40;99.90;;;;;;5046113;28;20685;-87
2021/11/26 08:08:33;;;;;;;6.77;1.10;;;5.50;99.90;;;;;;5045557;28;20213;-86
2021/11/26 08:11:00;;;;;;;1.63;0.60;;;5.50;99.90;;;;;;5046231;28;20226;-88
2021/11/26 08:13:25;;;;;;;0.40;0.40;;;5.50;99.90;;;;;;5046803;28;20270;-87
2021/11/26 08:15:51;;;;;;;0.33;0.33;;;5.60;99.90;;;;;;5062691;28;20222;-89
2021/11/26 08:18:17;;;;;;;0.63;0.63;;;5.60;99.90;;;;;;5046742;28;20218;-87
2021/11/26 08:20:43;;;;;;;0.30;0.30;;;5.60;99.90;;;;;;5046457;28;20198;-88
2021/11/26 08:23:09;;;;;;;0.83;0.60;;;5.70;99.90;;;;;;5046635;28;20192;-88
2021/11/26 08:25:36;;;;;;;0.80;0.33;;;5.70;99.90;;;;;;5045865;28;20264;-88
2021/11/26 08:28:02;;;;;;;15.37;0.57;;;5.70;99.90;;;;;;5046933;28;20248;-87
2021/11/26 08:30:27;;;;;;;0.37;0.30;;;5.80;99.90;;;;;;5045408;28;20218;-87
2021/11/26 08:32:53;;;;;;;0.40;0.30;;;5.80;99.90;;;;;;5028301;28;20321;-87
2021/11/26 08:35:21;;;;;;;5.00;1.70;;;5.80;99.90;;;;;;5028824;28;20194;-88
2021/11/26 08:37:48;;;;;;;0.30;0.30;;;5.90;99.90;;;;;;5046698;28;20222;-88
2021/11/26 08:40:15;;;;;;;0.10;0.10;;;5.90;99.90;;;;;;5045563;28;20223;-87
2021/11/26 08:42:41;;;;;;;11.17;0.70;;;5.90;99.90;;;;;;5045861;28;21177;-89
2021/11/26 08:45:07;;;;;;;1.60;0.67;;;6.00;99.90;;;;;;5047738;28;20218;-86
2021/11/26 08:47:34;;;;;;;0.67;0.67;;;6.00;99.90;;;;;;5062710;28;20222;-85
2021/11/26 08:50:00;;;;;;;0.37;0.37;;;6.00;99.90;;;;;;5047230;28;20289;-86
2021/11/26 08:52:27;;;;;;;0.40;0.40;;;6.10;99.90;;;;;;5046163;28;20617;-86
2021/11/26 08:54:53;;;;;;;4.13;0.57;;;6.10;99.90;;;;;;5044536;28;20233;-85
2021/11/26 08:57:26;;;;;;;0.93;0.50;;;6.10;99.90;;;;;;5060378;28;21128;-87
2021/11/26 08:59:52;;;;;;;0.10;0.10;;;6.20;99.90;;;;;;5042416;28;20197;-87
2021/11/26 09:02:18;;;;;;;1.17;0.57;;;6.20;99.90;;;;;;5044484;28;20230;-84
2021/11/26 09:04:44;;;;;;;3.50;0.60;;;6.20;99.90;;;;;;5027747;28;20217;-87
2021/11/26 09:07:09;;;;;;;1.47;0.57;;;6.30;99.90;;;;;;5044601;28;20231;-84
2021/11/26 09:09:35;;;;;;;0.77;0.47;;;6.30;99.90;;;;;;5045977;28;20715;-84
2021/11/26 09:12:03;;;;;;;0.50;0.20;;;6.30;99.90;;;;;;5043967;28;20237;-86
2021/11/26 09:14:29;;;;;;;0.20;0.20;;;6.40;99.90;;;;;;5046120;28;20194;-84
2021/11/26 09:16:55;;;;;;;0.57;0.57;;;6.40;99.90;;;;;;5046538;28;20279;-89
2021/11/26 09:19:21;;;;;;;0.30;0.30;;;6.40;99.90;;;;;;5027944;28;21069;-88
2021/11/26 09:21:46;;;;;;;0.83;0.53;;;6.40;99.90;;;;;;5044134;28;20700;-87
2021/11/26 09:24:12;;;;;;;0.47;0.47;;;6.40;99.90;;;;;;5044232;28;20573;-87
2021/11/26 09:26:39;;;;;;;0.47;0.33;;;6.50;99.90;;;;;;5059551;28;20190;-86
2021/11/26 09:29:05;;;;;;;0.47;0.47;;;6.50;99.90;;;;;;5027780;28;20198;-86
2021/11/26 09:31:31;;;;;;;0.30;0.30;;;6.60;99.90;;;;;;5043202;28;20228;-83
2021/11/26 09:33:57;;;;;;;0.27;0.27;;;6.60;99.90;;;;;;5044909;28;20614;-84
2021/11/26 09:36:24;;;;;;;0.50;0.43;;;6.60;99.90;;;;;;5043570;28;20225;-86
2021/11/26 09:38:50;;;;;;;0.30;0.30;;;6.60;99.90;;;;;;5045635;28;20345;-86
2021/11/26 09:41:17;;;;;;;2.93;0.90;;;6.70;99.90;;;;;;5043693;28;20208;-85
2021/11/26 09:43:46;;;;;;;2.10;1.17;;;6.60;99.90;;;;;;5043269;28;20210;-86
2021/11/26 09:46:12;;;;;;;3.30;0.50;;;6.60;99.90;;;;;;5042419;28;20299;-87
2021/11/26 09:48:37;;;;;;;0.40;0.40;;;6.60;99.90;;;;;;5043242;28;20261;-87
2021/11/26 09:51:05;;;;;;;1.13;1.03;;;6.70;99.90;;;;;;5042651;28;20222;-87
2021/11/26 09:53:32;;;;;;;0.60;0.40;;;6.70;99.90;;;;;;5043800;28;20549;-87
2021/11/26 09:56:02;;;;;;;0.37;0.37;;;6.80;99.90;;;;;;5041549;28;20304;-86
2021/11/26 09:58:31;;;;;;;2.20;1.63;;;6.80;99.90;;;;;;5043150;28;20236;-87
2021/11/26 10:00:58;;;;;;;0.83;0.50;;;6.80;99.90;;;;;;5042079;28;20230;-87
2021/11/26 10:03:41;;;;;;;0.27;0.27;;;6.80;99.90;;;;;;5058286;28;20221;-86
2021/11/26 10:06:25;;;;;;;0.30;0.30;;;6.80;99.90;;;;;;5041660;28;20218;-86
2021/11/26 10:08:54;;;;;;;2.20;2.00;;;6.80;99.90;;;;;;5042289;28;20260;-86
2021/11/26 10:11:29;;;;;;;0.10;0.10;;;6.80;99.90;;;;;;5042394;28;20193;-85
2021/11/26 10:13:56;;;;;;;2.53;0.80;;;6.70;99.90;;;;;;5042377;28;20217;-85
2021/11/26 10:16:22;;;;;;;2.43;1.43;;;6.70;99.90;;;;;;5042689;28;20244;-87
2021/11/26 10:18:52;;;;;;;0.17;0.17;;;6.70;99.90;;;;;;5041974;28;20316;-87
2021/11/26 10:21:19;;;;;;;2.60;1.00;;;6.70;99.90;;;;;;5040617;28;20313;-88
2021/11/26 10:23:50;;;;;;;1.00;0.87;;;6.60;99.90;;;;;;5041574;28;20269;-87
2021/11/26 10:26:21;;;;;;;0.30;0.30;;;6.70;99.90;;;;;;5042957;28;20247;-85
2021/11/26 10:28:52;;;;;;;2.47;1.23;;;6.70;99.90;;;;;;5042474;28;20238;-86
2021/11/26 10:31:21;;;;;;;0.87;0.73;;;6.70;99.90;;;;;;5042144;28;20308;-86
2021/11/26 10:33:47;;;;;;;0.20;0.20;;;6.80;99.90;;;;;;5041494;28;20225;-85
2021/11/26 10:36:13;;;;;;;0.40;0.40;;;6.80;99.90;;;;;;5060841;28;20308;-85
2021/11/26 10:38:39;;;;;;;1.73;0.67;;;6.90;99.90;;;;;;5045099;28;20204;-85
2021/11/26 10:41:12;;;;;;;0.83;0.83;;;6.90;99.90;;;;;;5046104;28;20186;-85
2021/11/26 10:59:59;;;;;;;0.70;0.70;;;7.00;99.90;;;;;;5046541;28;20644;-87
2021/11/26 11:02:28;;;;;;;0.70;0.70;;;7.20;99.90;;;;;;5047181;28;20278;-87
2021/11/26 11:04:54;;;;;;;0.63;0.63;;;7.20;99.90;;;;;;5045063;28;20226;-89
2021/11/26 11:07:21;;;;;;;0.87;0.60;;;7.20;99.90;;;;;;5054810;28;20244;-87
2021/11/26 11:09:51;;;;;;;1.17;0.70;;;7.20;99.90;;;;;;5051550;28;20229;-86
2021/11/26 11:12:17;;;;;;;7.20;1.33;;;7.30;99.90;;;;;;5057919;28;20240;-87
2021/11/26 11:14:58;;;;;;;0.30;0.30;;;7.40;99.90;;;;;;5046168;28;20251;-86
2021/11/26 11:17:27;;;;;;;0.40;0.40;;;7.40;99.90;;;;;;5046565;28;20585;-87
2021/11/26 11:19:57;;;;;;;0.43;0.43;;;7.40;99.90;;;;;;5045385;28;20696;-87
2021/11/26 11:22:23;;;;;;;3.27;0.83;;;7.40;99.90;;;;;;5046131;28;20278;-86
2021/11/26 11:24:50;;;;;;;1.03;0.83;;;7.30;99.90;;;;;;5044418;28;20233;-86
2021/11/26 11:27:16;;;;;;;0.50;0.50;;;7.30;99.90;;;;;;5045406;28;20609;-86
2021/11/26 11:29:42;;;;;;;0.50;0.50;;;7.20;99.90;;;;;;5029202;28;20285;-87
2021/11/26 11:32:10;;;;;;;2.40;0.53;;;7.30;99.90;;;;;;5045863;28;20977;-84
2021/11/26 11:34:36;;;;;;;2.93;1.10;;;7.20;99.90;;;;;;5044413;28;20230;-86
2021/11/26 11:37:07;;;;;;;6.03;1.27;;;7.20;99.90;;;;;;5045691;28;20225;-84
2021/11/26 11:39:50;;;;;;;1.17;1.07;;;7.10;99.90;;;;;;5030515;28;20268;-87
2021/11/26 11:42:32;;;;;;;0.40;0.40;;;7.10;99.90;;;;;;5039583;28;20225;-87
2021/11/26 11:45:07;;;;;;;1.63;1.53;;;7.00;99.90;;;;;;5045440;28;20221;-87
2021/11/26 11:47:33;;;;;;;0.57;0.57;;;7.00;99.90;;;;;;5060160;28;20343;-86
2021/11/26 11:50:15;;;;;;;1.60;1.37;;;7.00;99.90;;;;;;5044196;28;20301;-86
2021/11/26 11:52:52;;;;;;;1.70;1.23;;;7.00;99.90;;;;;;5045363;28;20506;-87
2021/11/26 11:55:22;;;;;;;3.00;1.80;;;7.00;99.90;;;;;;5044208;28;21268;-85
2021/11/26 11:57:57;;;;;;;2.73;1.57;;;7.00;99.90;;;;;;5045023;28;20232;-86
2021/11/26 12:00:36;;;;;;;0.53;0.53;;;7.00;99.90;;;;;;5043722;28;20221;-87
2021/11/26 12:03:14;;;;;;;5.47;1.50;;;7.00;99.90;;;;;;5038314;28;20735;-85
2021/11/26 12:05:42;;;;;;;1.63;1.53;;;6.90;99.90;;;;;;5041832;28;20923;-85
2021/11/26 12:08:10;;;;;;;2.43;1.33;;;6.90;99.90;;;;;;5042826;28;20206;-85
2021/11/26 12:10:50;;;;;;;1.53;0.87;;;6.90;99.90;;;;;;5044606;28;20227;-83
2021/11/26 12:13:23;;;;;;;1.10;1.00;;;7.00;99.90;;;;;;5044580;28;20758;-85
2021/11/26 12:15:51;;;;;;;4.13;1.23;;;7.00;99.90;;;;;;5044688;28;20263;-85
2021/11/26 12:18:17;;;;;;;4.87;2.03;;;7.00;99.90;;;;;;5027190;28;20660;-86
2021/11/26 12:20:47;;;;;;;4.10;1.37;;;7.10;99.90;;;;;;5043017;28;20193;-86
2021/11/26 12:23:23;;;;;;;5.70;1.97;;;7.10;99.90;;;;;;5045698;28;20205;-86
2021/11/26 12:26:13;;;;;;;1.37;1.23;;;7.00;99.90;;;;;;5043987;28;20296;-85
2021/11/26 12:28:44;;;;;;;10.70;1.97;;;7.00;99.90;;;;;;5043435;28;20728;-87
2021/11/26 12:31:11;;;;;;;1.60;1.50;;;7.00;99.90;;;;;;5044514;28;20221;-87
2021/11/26 12:33:38;;;;;;;1.67;0.93;;;7.00;99.90;;;;;;5035086;28;20219;-87
2021/11/26 12:36:05;;;;;;;1.23;1.23;;;7.00;99.90;;;;;;5042794;28;20758;-86
2021/11/26 12:38:49;;;;;;;1.77;1.20;;;7.00;99.90;;;;;;5044542;28;20200;-88
2021/11/26 12:41:31;;;;;;;2.17;1.70;;;6.90;99.90;;;;;;5043605;28;20241;-85
2021/11/26 12:44:02;;;;;;;1.83;1.30;;;6.90;99.90;;;;;;5044891;28;20217;-86
2021/11/26 12:46:30;;;;;;;1.20;1.17;;;6.80;99.90;;;;;;5042993;28;20245;-88
2021/11/26 12:51:55;;;;;;;1.07;0.93;;;6.90;99.90;;;;;;5039146;28;20224;-87
2021/11/26 12:54:30;;;;;;;0.97;0.97;;;6.90;99.90;;;;;;5044088;28;20229;-87
2021/11/26 12:56:58;;;;;;;3.63;3.30;;;6.90;99.90;;;;;;5062271;28;20257;-87
2021/11/26 12:59:34;;;;;;;3.23;1.27;;;6.90;99.90;;;;;;5047301;28;20225;-85
2021/11/26 13:02:00;;;;;;;2.57;1.40;;;6.80;99.90;;;;;;5044693;28;20340;-88
2021/11/26 13:04:27;;;;;;;5.87;2.47;;;6.70;99.90;;;;;;5027634;28;20234;-85
2021/11/26 13:07:09;;;;;;;1.17;1.07;;;6.70;99.90;;;;;;5043337;28;20268;-87
2021/11/26 13:09:46;;;;;;;1.27;0.93;;;6.70;99.90;;;;;;5044248;28;20218;-91
2021/11/26 13:12:13;;;;;;;1.13;0.90;;;6.60;99.90;;;;;;5044650;28;20221;-85
2021/11/26 13:14:47;;;;;;;4.40;3.33;;;6.60;99.90;;;;;;5042596;28;20190;-86
2021/11/26 13:17:13;;;;;;;2.40;2.07;;;6.50;99.90;;;;;;5044565;28;20199;-84
2021/11/26 13:19:39;;;;;;;1.63;1.53;;;6.50;99.90;;;;;;5043727;28;20217;-85